Terminal Aerodrome Forecast
Issued by NWS Upton, NY

Current Version | Previous Version | Text Only | Print | Product List | Glossary On
Versions: 1 2 3 4 5 6 7 8 9 10 11 12 13 14 15 16 17 18 19 20 21 22 23 24 25 26 27 28 29 30 31
000 FTUS41 KOKX 301125 TAFISP TAF KISP 301125Z 3012/3112 20008KT 6SM BR SCT003 BKN250 TEMPO 3012/3013 4SM BR BKN003 FM301400 18010KT P6SM SCT030 BKN250 FM301700 19013G20KT P6SM SCT040 BKN250 FM310200 21009KT P6SM BKN250 FM310800 20008KT P6SM SCT004 BKN250 TEMPO 3108/3112 BKN004=

USA.gov is the U.S. government's official web portal to all federal, state and local government web resources and services.